createdAt,value
2018-12-11T00:01:05.631Z,4.24
2018-12-11T00:04:09.141Z,4.20
2018-12-11T00:07:12.267Z,4.21
2018-12-11T00:10:15.735Z,4.02
2018-12-11T00:13:19.177Z,3.91
2018-12-11T00:16:22.691Z,3.85
2018-12-11T00:19:26.708Z,3.77
2018-12-11T00:22:30.173Z,3.93
2018-12-11T00:25:33.596Z,4.09
2018-12-11T00:28:37.240Z,4.19
2018-12-11T00:31:40.791Z,4.13
2018-12-11T00:34:44.246Z,4.09
2018-12-11T00:37:47.758Z,4.19
2018-12-11T00:40:51.262Z,4.18
2018-12-11T00:43:54.854Z,4.14
2018-12-11T00:46:58.582Z,4.20
2018-12-11T00:50:02.060Z,4.13
2018-12-11T00:53:05.692Z,4.08
2018-12-11T00:56:09.172Z,4.15
2018-12-11T00:59:12.831Z,4.12
2018-12-11T01:02:16.460Z,4.23
2018-12-11T01:05:19.975Z,4.22
2018-12-11T01:08:23.700Z,4.24
2018-12-11T01:11:27.157Z,4.16
2018-12-11T01:14:30.632Z,4.08
2018-12-11T01:17:34.207Z,4.20
2018-12-11T01:20:37.682Z,4.35
2018-12-11T01:23:41.289Z,4.42
2018-12-11T01:26:44.823Z,4.41
2018-12-11T01:29:48.278Z,4.56
2018-12-11T01:32:51.732Z,4.61
2018-12-11T01:35:55.276Z,4.56
2018-12-11T01:38:58.716Z,4.36
2018-12-11T01:42:02.159Z,4.10
2018-12-11T01:45:06.670Z,3.90
2018-12-11T01:48:10.211Z,3.99
2018-12-11T01:51:13.738Z,3.93
2018-12-11T01:54:17.200Z,3.88
2018-12-11T01:57:20.761Z,3.94
2018-12-11T02:00:24.685Z,3.87
2018-12-11T02:03:28.237Z,4.01
2018-12-11T02:06:32.411Z,4.05
2018-12-11T02:09:36.029Z,4.07
2018-12-11T02:12:39.472Z,4.17
2018-12-11T02:15:44.389Z,4.22
2018-12-11T02:18:47.866Z,4.24
2018-12-11T02:21:51.373Z,4.20
2018-12-11T02:24:54.917Z,4.09
2018-12-11T02:27:58.443Z,3.99
2018-12-11T02:31:01.979Z,3.98
2018-12-11T02:34:06.053Z,4.04
2018-12-11T02:37:09.569Z,4.06
2018-12-11T02:40:13.142Z,4.04
2018-12-11T02:43:16.631Z,4.05
2018-12-11T02:46:20.200Z,4.04
2018-12-11T02:49:23.737Z,4.00
2018-12-11T02:52:27.797Z,3.92
2018-12-11T02:55:31.197Z,3.80
2018-12-11T02:58:34.766Z,3.78
2018-12-11T03:01:38.282Z,3.72
2018-12-11T03:04:41.817Z,3.65
2018-12-11T03:07:45.272Z,3.63
2018-12-11T03:10:48.788Z,3.72
2018-12-11T03:13:52.240Z,3.63
2018-12-11T03:16:55.702Z,3.54
2018-12-11T03:19:59.236Z,3.54
2018-12-11T03:23:02.728Z,3.46
2018-12-11T03:26:06.368Z,3.55
2018-12-11T03:29:09.906Z,3.47
2018-12-11T03:32:13.562Z,3.48
2018-12-11T03:35:17.043Z,3.50
2018-12-11T03:38:20.584Z,3.50
2018-12-11T03:41:24.086Z,3.48
2018-12-11T03:44:27.773Z,3.45
2018-12-11T03:47:31.377Z,3.46
2018-12-11T03:50:34.848Z,3.53
2018-12-11T03:53:38.428Z,3.63
2018-12-11T03:56:41.948Z,3.55
2018-12-11T03:59:45.452Z,3.50
2018-12-11T04:02:48.898Z,3.46
2018-12-11T04:05:52.469Z,3.44
2018-12-11T04:08:56.013Z,3.35
2018-12-11T04:11:59.596Z,3.43
2018-12-11T04:15:03.187Z,3.40
2018-12-11T04:18:06.653Z,3.36
2018-12-11T04:21:10.140Z,3.44
2018-12-11T04:24:13.604Z,3.47
2018-12-11T04:27:17.053Z,3.48
2018-12-11T04:30:20.654Z,3.57
2018-12-11T04:33:24.336Z,3.60
2018-12-11T04:36:27.991Z,3.65
2018-12-11T04:39:34.013Z,3.62
2018-12-11T04:42:37.046Z,3.62
2018-12-11T04:45:40.529Z,3.50
2018-12-11T04:48:44.033Z,3.48
2018-12-11T04:51:47.521Z,3.58
2018-12-11T04:54:51.185Z,3.49
2018-12-11T04:57:54.632Z,3.39
2018-12-11T05:00:58.228Z,3.42
2018-12-11T05:04:01.819Z,3.52
2018-12-11T05:07:05.233Z,3.39
2018-12-11T05:10:09.238Z,3.48
2018-12-11T05:13:12.827Z,3.52
2018-12-11T05:16:16.438Z,3.60
2018-12-11T05:19:19.922Z,3.56
2018-12-11T05:22:23.556Z,3.46
2018-12-11T05:31:00.434Z,3.71
2018-12-11T05:34:03.931Z,3.78
2018-12-11T05:37:07.787Z,3.88
2018-12-11T05:40:11.437Z,4.07
2018-12-11T05:43:14.970Z,4.08
2018-12-11T05:46:18.433Z,4.01
2018-12-11T05:49:21.997Z,3.98
2018-12-11T05:52:25.552Z,3.82
2018-12-11T05:55:28.992Z,3.83
2018-12-11T05:58:32.467Z,3.82
2018-12-11T06:01:36.041Z,3.92
2018-12-11T06:04:39.546Z,3.80
2018-12-11T06:07:43.206Z,3.97
2018-12-11T06:10:46.807Z,3.99
2018-12-11T06:13:50.278Z,4.06
2018-12-11T06:16:53.800Z,4.16
2018-12-11T06:19:58.117Z,4.13
2018-12-11T06:23:01.595Z,4.12
2018-12-11T06:26:05.109Z,4.10
2018-12-11T06:29:08.649Z,4.10
2018-12-11T06:32:12.234Z,4.08
2018-12-11T06:35:15.903Z,4.10
2018-12-11T06:38:19.400Z,4.03
2018-12-11T06:41:22.971Z,3.87
2018-12-11T06:49:59.774Z,3.53
2018-12-11T06:53:03.260Z,3.47
2018-12-11T06:56:06.836Z,3.55
2018-12-11T06:59:10.486Z,3.54
2018-12-11T07:02:14.380Z,3.56
2018-12-11T07:05:19.117Z,3.56
2018-12-11T07:08:22.810Z,3.55
2018-12-11T07:11:27.246Z,3.49
2018-12-11T07:14:30.720Z,3.47
2018-12-11T07:17:34.229Z,3.41
2018-12-11T07:20:37.688Z,3.47
2018-12-11T07:23:41.150Z,3.43
2018-12-11T07:26:44.624Z,3.45
2018-12-11T07:29:48.151Z,3.50
2018-12-11T07:32:51.618Z,3.55
2018-12-11T07:35:55.094Z,3.63
2018-12-11T07:38:58.604Z,3.63
2018-12-11T07:42:02.069Z,3.71
2018-12-11T07:45:05.922Z,3.72
2018-12-11T07:48:09.455Z,3.58
2018-12-11T07:51:12.918Z,3.52
2018-12-11T07:54:16.339Z,3.57
2018-12-11T07:57:19.899Z,3.54
2018-12-11T08:00:23.575Z,3.56
2018-12-11T08:03:27.204Z,3.68
2018-12-11T08:06:30.705Z,3.75
2018-12-11T08:09:34.249Z,3.73
2018-12-11T08:12:37.751Z,3.67
2018-12-11T08:15:41.275Z,3.71
2018-12-11T08:18:44.738Z,3.74
2018-12-11T08:21:48.194Z,3.77
2018-12-11T08:24:51.667Z,3.80
2018-12-11T08:27:55.130Z,3.72
2018-12-11T08:30:58.689Z,3.68
2018-12-11T08:34:02.094Z,3.62
2018-12-11T08:37:05.604Z,3.68
2018-12-11T08:40:09.037Z,3.65
2018-12-11T08:43:19.092Z,3.73
2018-12-11T08:46:22.673Z,3.74
2018-12-11T08:49:26.112Z,3.77
2018-12-11T08:52:29.759Z,3.80
2018-12-11T08:55:33.354Z,3.82
2018-12-11T08:58:36.823Z,3.89
2018-12-11T09:01:40.324Z,4.00
2018-12-11T09:04:43.828Z,3.95
2018-12-11T09:07:47.318Z,4.00
2018-12-11T09:10:50.878Z,4.09
2018-12-11T09:13:54.541Z,4.05
2018-12-11T09:16:58.534Z,4.10
2018-12-11T09:20:02.020Z,4.08
2018-12-11T09:23:05.587Z,4.00
2018-12-11T09:26:09.071Z,3.91
2018-12-11T09:29:12.558Z,3.94
2018-12-11T09:32:16.333Z,4.06
2018-12-11T09:35:19.923Z,4.08
2018-12-11T09:38:23.403Z,4.17
2018-12-11T09:41:27.374Z,4.21
2018-12-11T09:44:30.914Z,4.16
2018-12-11T09:47:34.468Z,4.06
2018-12-11T09:50:38.121Z,4.06
2018-12-11T09:53:41.663Z,4.01
2018-12-11T09:56:45.122Z,4.05
2018-12-11T09:59:48.622Z,4.17
2018-12-11T10:02:52.134Z,4.12
2018-12-11T10:05:55.679Z,4.01
2018-12-11T10:09:05.539Z,3.97
2018-12-11T10:12:09.070Z,4.02
2018-12-11T10:15:12.561Z,4.00
2018-12-11T10:18:16.067Z,3.97
2018-12-11T10:21:19.484Z,3.94
2018-12-11T10:24:25.064Z,3.95
2018-12-11T10:27:28.762Z,3.91
2018-12-11T10:30:37.688Z,3.91
2018-12-11T10:33:41.152Z,3.86
2018-12-11T10:36:44.626Z,3.95
2018-12-11T10:39:48.219Z,3.89
2018-12-11T10:42:51.717Z,3.86
2018-12-11T10:45:55.399Z,3.85
2018-12-11T10:48:58.863Z,3.86
2018-12-11T10:52:02.358Z,3.84
2018-12-11T10:55:06.097Z,3.83
2018-12-11T10:58:09.708Z,3.87
2018-12-11T11:01:18.935Z,3.91
2018-12-11T11:04:23.318Z,4.00
2018-12-11T11:07:27.340Z,3.99
2018-12-11T11:10:31.127Z,4.04
2018-12-11T11:13:34.927Z,4.12
2018-12-11T11:16:38.448Z,4.09
2018-12-11T11:19:42.038Z,4.06
2018-12-11T11:22:45.529Z,4.17
2018-12-11T11:25:49.143Z,4.09
2018-12-11T11:28:52.788Z,4.10
2018-12-11T11:31:56.457Z,4.15
2018-12-11T11:34:59.982Z,4.16
2018-12-11T11:38:03.438Z,4.12
2018-12-11T11:41:06.905Z,4.16
2018-12-11T11:44:10.425Z,4.20
2018-12-11T11:47:14.057Z,4.26
2018-12-11T11:50:23.897Z,4.23
2018-12-11T11:53:27.462Z,4.28
2018-12-11T11:56:30.921Z,4.31
2018-12-11T11:59:34.450Z,4.19
2018-12-11T12:02:38.003Z,4.24
2018-12-11T12:05:41.518Z,4.28
2018-12-11T12:08:45.059Z,4.44
2018-12-11T12:11:48.569Z,4.45
2018-12-11T12:14:51.995Z,4.47
2018-12-11T12:17:55.474Z,4.53
2018-12-11T12:20:58.957Z,4.57
2018-12-11T12:24:02.419Z,4.48
2018-12-11T12:27:05.982Z,4.53
2018-12-11T12:30:16.095Z,4.56
2018-12-11T12:33:19.559Z,4.58
2018-12-11T12:36:23.103Z,4.45
2018-12-11T12:39:27.362Z,4.56
2018-12-11T12:42:30.904Z,4.62
2018-12-11T12:45:34.361Z,4.61
2018-12-11T12:48:37.868Z,4.63
2018-12-11T12:51:41.365Z,4.62
2018-12-11T12:54:45.349Z,4.64
2018-12-11T12:57:48.814Z,4.65
2018-12-11T13:00:53.062Z,4.69
2018-12-11T13:03:56.567Z,4.71
2018-12-11T13:07:00.282Z,4.59
2018-12-11T13:10:03.879Z,4.62
2018-12-11T13:13:07.502Z,4.72
2018-12-11T13:16:11.023Z,4.62
2018-12-11T13:19:14.523Z,4.53
2018-12-11T13:22:18.116Z,4.53
2018-12-11T13:25:21.562Z,4.53
2018-12-11T13:28:25.098Z,4.61
2018-12-11T13:31:29.045Z,4.62
2018-12-11T13:34:32.542Z,4.52
2018-12-11T13:37:36.334Z,4.57
2018-12-11T13:40:40.280Z,4.77
2018-12-11T13:43:43.797Z,4.83
2018-12-11T13:46:47.609Z,4.92
2018-12-11T13:49:51.117Z,4.91
2018-12-11T13:52:54.646Z,5.12
2018-12-11T13:55:59.036Z,5.25
2018-12-11T13:59:02.636Z,5.25
2018-12-11T14:02:06.077Z,5.19
2018-12-11T14:05:09.536Z,5.24
2018-12-11T14:08:13.192Z,5.20
2018-12-11T14:11:16.711Z,5.32
2018-12-11T14:14:20.187Z,5.26
2018-12-11T14:17:23.874Z,5.17
2018-12-11T14:20:27.692Z,5.13
2018-12-11T14:23:31.263Z,5.18
2018-12-11T14:26:34.826Z,5.11
2018-12-11T14:29:38.340Z,5.19
2018-12-11T14:32:41.809Z,5.12
2018-12-11T14:35:45.441Z,5.01
2018-12-11T14:38:48.963Z,5.15
2018-12-11T14:41:52.442Z,5.13
2018-12-11T14:44:56.052Z,5.05
2018-12-11T14:47:59.512Z,5.01
2018-12-11T14:51:03.557Z,4.90
2018-12-11T14:54:07.141Z,4.86
2018-12-11T14:57:10.803Z,4.80
2018-12-11T15:00:14.348Z,4.79
2018-12-11T15:03:17.858Z,4.79
2018-12-11T15:06:21.397Z,4.80
2018-12-11T15:09:29.971Z,4.77
2018-12-11T15:12:33.613Z,4.75
2018-12-11T15:15:37.060Z,4.68
2018-12-11T15:18:40.656Z,4.73
2018-12-11T15:21:44.231Z,4.66
2018-12-11T15:24:47.768Z,4.62
2018-12-11T15:27:51.203Z,4.57
2018-12-11T15:31:05.892Z,4.48
2018-12-11T15:34:09.343Z,4.39
2018-12-11T15:37:12.928Z,4.22
2018-12-11T15:40:16.446Z,4.13
2018-12-11T15:43:20.083Z,4.03
2018-12-11T15:46:23.801Z,3.98
2018-12-11T15:49:27.723Z,3.90
2018-12-11T15:52:31.240Z,3.89
2018-12-11T15:55:34.790Z,3.86
2018-12-11T15:58:38.416Z,3.70
2018-12-11T16:01:42.049Z,3.68
2018-12-11T16:04:45.741Z,3.63
2018-12-11T16:07:49.212Z,3.52
2018-12-11T16:10:52.795Z,3.38
2018-12-11T16:13:57.460Z,3.33
2018-12-11T16:17:01.100Z,3.24
2018-12-11T16:20:05.152Z,3.39
2018-12-11T16:23:08.826Z,3.49
2018-12-11T16:26:12.472Z,3.38
2018-12-11T16:29:16.035Z,3.29
2018-12-11T16:32:19.607Z,3.26
2018-12-11T16:35:23.307Z,3.32
2018-12-11T16:38:28.011Z,3.21
2018-12-11T16:41:31.680Z,3.15
2018-12-11T16:44:35.234Z,3.09
2018-12-11T16:47:38.807Z,3.00
2018-12-11T16:50:42.362Z,3.00
2018-12-11T16:53:45.890Z,2.82
2018-12-11T16:56:49.346Z,2.93
2018-12-11T16:59:52.997Z,2.84
2018-12-11T17:02:56.488Z,2.91
2018-12-11T17:06:00.098Z,3.04
2018-12-11T17:09:05.081Z,2.97
2018-12-11T17:12:08.837Z,2.99
2018-12-11T17:15:17.429Z,3.03
2018-12-11T17:18:20.964Z,2.94
2018-12-11T17:21:24.541Z,3.04
2018-12-11T17:24:28.037Z,3.09
2018-12-11T17:27:31.574Z,3.23
2018-12-11T17:30:35.010Z,3.36
2018-12-11T17:33:38.563Z,3.50
2018-12-11T17:36:42.122Z,3.60
2018-12-11T17:39:45.777Z,3.67
2018-12-11T17:42:49.297Z,3.69
2018-12-11T17:45:52.968Z,3.73
2018-12-11T17:48:56.564Z,3.71
2018-12-11T17:52:00.233Z,3.75
2018-12-11T17:55:03.797Z,3.76
2018-12-11T17:58:07.820Z,3.83
2018-12-11T18:01:11.326Z,3.84
2018-12-11T18:04:14.882Z,3.85
2018-12-11T18:07:18.563Z,3.86
2018-12-11T18:10:23.319Z,3.86
2018-12-11T18:13:27.944Z,3.85
2018-12-11T18:16:31.540Z,3.92
2018-12-11T18:19:35.078Z,3.95
2018-12-11T18:22:38.558Z,4.01
2018-12-11T18:25:42.079Z,3.99
2018-12-11T18:28:45.578Z,4.04
2018-12-11T18:31:49.304Z,4.09
2018-12-11T18:34:53.744Z,4.18
2018-12-11T18:38:00.293Z,4.18
2018-12-11T18:41:03.851Z,4.23
2018-12-11T18:44:07.374Z,4.15
2018-12-11T18:47:11.038Z,4.07
2018-12-11T18:50:21.222Z,4.03
2018-12-11T18:53:20.533Z,4.01
2018-12-11T18:56:24.047Z,3.99
2018-12-11T18:59:27.853Z,3.97
2018-12-11T19:02:31.407Z,3.92
2018-12-11T19:05:35.064Z,3.92
2018-12-11T19:08:38.633Z,3.90
2018-12-11T19:11:42.170Z,3.85
2018-12-11T19:14:45.823Z,3.85
2018-12-11T19:17:49.323Z,3.80
2018-12-11T19:20:53.197Z,3.79
2018-12-11T19:24:01.518Z,3.78
2018-12-11T19:27:05.187Z,3.83
2018-12-11T19:30:09.077Z,3.77
2018-12-11T19:33:12.612Z,3.73
2018-12-11T19:36:16.142Z,3.76
2018-12-11T19:39:19.771Z,3.79
2018-12-11T19:42:24.094Z,3.73
2018-12-11T19:45:27.981Z,3.72
2018-12-11T19:48:31.728Z,3.71
2018-12-11T19:51:35.579Z,3.68
2018-12-11T19:54:39.151Z,3.71
2018-12-11T19:57:42.769Z,3.68
2018-12-11T20:00:46.293Z,3.70
2018-12-11T20:03:49.828Z,3.65
2018-12-11T20:06:53.385Z,3.64
2018-12-11T20:10:02.270Z,3.62
2018-12-11T20:13:06.116Z,3.62
2018-12-11T20:16:10.667Z,3.60
2018-12-11T20:19:14.238Z,3.55
2018-12-11T20:22:17.780Z,3.55
2018-12-11T20:25:21.340Z,3.50
2018-12-11T20:28:25.190Z,3.54
2018-12-11T20:31:28.684Z,3.53
2018-12-11T20:34:32.164Z,3.50
2018-12-11T20:37:35.700Z,3.49
2018-12-11T20:40:39.246Z,3.44
2018-12-11T20:43:42.838Z,3.53
2018-12-11T20:46:46.340Z,3.50
2018-12-11T20:49:49.835Z,3.48
2018-12-11T20:52:53.656Z,3.45
2018-12-11T20:55:57.186Z,3.42
2018-12-11T20:59:00.646Z,3.42
2018-12-11T21:02:04.194Z,3.42
2018-12-11T21:05:07.740Z,3.41
2018-12-11T21:08:11.229Z,3.43
2018-12-11T21:11:14.988Z,3.47
2018-12-11T21:14:18.561Z,3.44
2018-12-11T21:17:22.081Z,3.45
2018-12-11T21:20:25.587Z,3.40
2018-12-11T21:23:29.844Z,3.44
2018-12-11T21:26:33.385Z,3.42
2018-12-11T21:29:37.260Z,3.41
2018-12-11T21:32:41.675Z,3.40
2018-12-11T21:35:45.320Z,3.38
2018-12-11T21:38:49.985Z,3.40
2018-12-11T21:41:53.449Z,3.35
2018-12-11T21:44:57.036Z,3.38
2018-12-11T21:48:00.555Z,3.40
2018-12-11T21:51:04.186Z,3.45
2018-12-11T21:54:07.745Z,3.38
2018-12-11T21:57:11.280Z,3.40
2018-12-11T22:00:14.761Z,3.40
2018-12-11T22:03:18.646Z,3.34
2018-12-11T22:06:22.676Z,3.33
2018-12-11T22:09:26.355Z,3.27
2018-12-11T22:12:30.234Z,3.31
2018-12-11T22:15:33.739Z,3.29
2018-12-11T22:18:37.295Z,3.28
2018-12-11T22:21:40.829Z,3.25
2018-12-11T22:24:44.444Z,3.24
2018-12-11T22:27:47.961Z,3.23
2018-12-11T22:30:51.445Z,3.21
2018-12-11T22:33:54.916Z,3.23
2018-12-11T22:36:58.450Z,3.20
2018-12-11T22:40:02.072Z,3.21
2018-12-11T22:43:05.606Z,3.24
2018-12-11T22:46:09.306Z,3.23
2018-12-11T22:49:12.750Z,3.20
2018-12-11T22:52:16.299Z,3.17
2018-12-11T22:55:19.790Z,3.18
2018-12-11T22:58:23.289Z,3.15
2018-12-11T23:01:26.814Z,3.13
2018-12-11T23:04:30.435Z,3.10
2018-12-11T23:07:33.908Z,3.10
2018-12-11T23:10:37.394Z,3.09
2018-12-11T23:13:40.903Z,3.10
2018-12-11T23:16:44.503Z,3.08
2018-12-11T23:19:47.988Z,3.08
2018-12-11T23:22:51.615Z,3.05
2018-12-11T23:25:55.478Z,3.03
2018-12-11T23:28:58.994Z,3.09
2018-12-11T23:32:02.634Z,3.09
2018-12-11T23:35:06.480Z,3.05
2018-12-11T23:38:09.945Z,3.01
2018-12-11T23:41:13.523Z,2.99
2018-12-11T23:44:17.021Z,2.98
2018-12-11T23:47:20.613Z,2.95
2018-12-11T23:50:24.155Z,2.94
2018-12-11T23:53:28.233Z,2.94
2018-12-11T23:56:31.758Z,2.96
2018-12-11T23:59:35.399Z,2.95
